createdAt,value
2024-05-09T00:00:50.559Z,11.40
2024-05-09T00:03:21.154Z,11.50
2024-05-09T00:05:51.075Z,11.50
2024-05-09T00:08:24.042Z,11.50
2024-05-09T00:10:53.986Z,11.60
2024-05-09T00:13:23.761Z,11.60
2024-05-09T00:15:53.579Z,11.60
2024-05-09T00:18:23.663Z,11.60
2024-05-09T00:20:53.578Z,11.60
2024-05-09T00:23:26.050Z,11.60
2024-05-09T00:25:55.977Z,11.70
2024-05-09T00:28:25.911Z,11.60
2024-05-09T00:30:56.032Z,11.70
2024-05-09T00:33:26.089Z,11.60
2024-05-09T00:35:56.064Z,11.60
2024-05-09T00:38:28.570Z,11.60
2024-05-09T00:40:58.379Z,11.60
2024-05-09T00:43:28.177Z,11.60
2024-05-09T00:45:58.458Z,11.60
2024-05-09T00:48:29.462Z,11.70
2024-05-09T00:51:00.562Z,11.70
2024-05-09T00:53:33.846Z,11.70
2024-05-09T00:56:04.372Z,11.60
2024-05-09T00:58:34.499Z,11.50
2024-05-09T01:01:05.559Z,11.50
2024-05-09T01:03:35.760Z,11.50
2024-05-09T01:06:05.679Z,11.40
2024-05-09T01:08:38.308Z,11.40
2024-05-09T01:11:08.349Z,11.30
2024-05-09T01:13:38.218Z,11.30
2024-05-09T01:16:08.842Z,11.30
2024-05-09T01:18:38.718Z,11.40
2024-05-09T01:21:10.126Z,11.30
2024-05-09T01:23:42.717Z,11.20
2024-05-09T01:26:12.714Z,11.30
2024-05-09T01:28:42.563Z,11.20
2024-05-09T01:31:15.806Z,11.30
2024-05-09T01:33:46.243Z,11.20
2024-05-09T01:36:16.224Z,11.30
2024-05-09T01:38:48.628Z,11.20
2024-05-09T01:41:18.498Z,11.20
2024-05-09T01:43:48.377Z,11.20
2024-05-09T01:46:19.447Z,11.10
2024-05-09T01:48:49.822Z,11.10
2024-05-09T01:51:19.743Z,11.10
2024-05-09T01:53:52.304Z,11.10
2024-05-09T01:56:22.135Z,11.10
2024-05-09T01:58:51.980Z,11.00
2024-05-09T02:01:21.828Z,11.10
2024-05-09T02:03:51.882Z,11.00
2024-05-09T02:06:21.868Z,11.00
2024-05-09T02:08:54.291Z,11.00
2024-05-09T02:11:24.238Z,11.00
2024-05-09T02:13:54.088Z,11.00
2024-05-09T02:16:23.915Z,10.90
2024-05-09T02:18:53.811Z,10.90
2024-05-09T02:21:23.739Z,10.90
2024-05-09T02:23:56.133Z,10.80
2024-05-09T02:26:26.014Z,10.80
2024-05-09T02:28:55.882Z,10.80
2024-05-09T02:31:25.622Z,10.70
2024-05-09T02:33:55.696Z,10.70
2024-05-09T02:36:22.977Z,10.70
2024-05-09T02:38:55.382Z,10.60
2024-05-09T02:41:22.614Z,10.60
2024-05-09T02:43:52.488Z,10.50
2024-05-09T02:46:19.687Z,10.50
2024-05-09T02:48:49.609Z,10.40
2024-05-09T02:51:16.905Z,10.30
2024-05-09T02:53:46.768Z,10.30
2024-05-09T02:56:16.605Z,10.20
2024-05-09T02:58:46.461Z,10.30
2024-05-09T03:01:16.776Z,10.20
2024-05-09T03:03:48.520Z,10.30
2024-05-09T03:06:15.790Z,10.30
2024-05-09T03:08:47.768Z,10.30
2024-05-09T03:11:25.274Z,10.30
2024-05-09T03:13:56.072Z,10.40
2024-05-09T03:16:23.258Z,10.40
2024-05-09T03:18:54.636Z,10.30
2024-05-09T03:21:22.053Z,10.20
2024-05-09T03:23:51.887Z,10.10
2024-05-09T03:26:19.442Z,10.10
2024-05-09T03:28:51.983Z,10.10
2024-05-09T03:31:19.222Z,10.10
2024-05-09T03:33:49.325Z,10.10
2024-05-09T03:36:16.901Z,10.10
2024-05-09T03:38:46.747Z,10.10
2024-05-09T03:41:16.579Z,10.10
2024-05-09T03:43:47.098Z,10.10
2024-05-09T03:46:17.038Z,10.20
2024-05-09T03:48:46.931Z,10.10
2024-05-09T03:51:14.591Z,10.00
2024-05-09T03:53:44.401Z,10.00
2024-05-09T03:56:11.644Z,10.00
2024-05-09T03:58:42.112Z,10.00
2024-05-09T04:01:09.293Z,9.90
2024-05-09T04:03:41.928Z,9.90
2024-05-09T04:06:09.210Z,9.90
2024-05-09T04:08:39.046Z,10.00
2024-05-09T04:11:07.256Z,10.00
2024-05-09T04:13:37.048Z,10.00
2024-05-09T04:16:04.587Z,10.00
2024-05-09T04:18:34.463Z,10.10
2024-05-09T04:21:05.280Z,10.10
2024-05-09T04:23:35.272Z,10.10
2024-05-09T04:26:04.375Z,10.20
2024-05-09T04:28:34.250Z,10.20
2024-05-09T04:31:01.469Z,10.20
2024-05-09T04:33:34.759Z,10.30
2024-05-09T04:36:05.329Z,10.20
2024-05-09T04:38:35.225Z,10.20
2024-05-09T04:41:02.511Z,10.20
2024-05-09T04:43:33.298Z,10.30
2024-05-09T04:46:00.480Z,10.30
2024-05-09T04:48:30.799Z,10.40
2024-05-09T04:50:58.077Z,10.50
2024-05-09T04:53:30.503Z,10.70
2024-05-09T04:55:57.808Z,10.80
2024-05-09T04:58:27.616Z,10.90
2024-05-09T05:00:54.839Z,11.00
2024-05-09T05:03:24.942Z,11.00
2024-05-09T05:05:52.365Z,11.10
2024-05-09T05:08:22.238Z,11.30
2024-05-09T05:10:52.178Z,11.40
2024-05-09T05:13:24.073Z,11.80
2024-05-09T05:15:55.212Z,11.80
2024-05-09T05:18:25.809Z,12.00
2024-05-09T05:20:53.194Z,12.10
2024-05-09T05:23:24.601Z,12.10
2024-05-09T05:25:56.826Z,12.50
2024-05-09T05:28:26.687Z,12.50
2024-05-09T05:30:53.990Z,12.70
2024-05-09T05:33:24.564Z,13.10
2024-05-09T05:35:51.837Z,13.40
2024-05-09T05:38:24.783Z,13.20
2024-05-09T05:40:57.128Z,13.20
2024-05-09T05:43:26.953Z,12.90
2024-05-09T05:45:54.114Z,12.70
2024-05-09T05:48:24.019Z,12.80
2024-05-09T05:50:51.507Z,12.90
2024-05-09T05:53:21.738Z,13.00
2024-05-09T05:55:48.911Z,13.10
2024-05-09T05:58:22.490Z,13.20
2024-05-09T06:00:50.557Z,13.20
2024-05-09T06:03:20.345Z,13.20
2024-05-09T06:05:47.569Z,13.00
2024-05-09T06:08:17.475Z,13.20
2024-05-09T06:10:45.089Z,13.30
2024-05-09T06:13:15.844Z,13.70
2024-05-09T06:15:45.765Z,13.90
2024-05-09T06:18:17.255Z,14.10
2024-05-09T06:20:44.697Z,13.80
2024-05-09T06:23:15.180Z,13.50
2024-05-09T06:25:43.826Z,13.60
2024-05-09T06:28:13.950Z,13.80
2024-05-09T06:30:42.676Z,13.70
2024-05-09T06:33:16.748Z,13.70
2024-05-09T06:35:45.043Z,13.80
2024-05-09T06:38:15.106Z,13.80
2024-05-09T06:40:43.941Z,14.00
2024-05-09T06:43:16.895Z,14.00
2024-05-09T06:45:47.739Z,13.90
2024-05-09T06:48:22.065Z,14.00
2024-05-09T06:50:50.402Z,14.10
2024-05-09T06:53:24.489Z,14.20
2024-05-09T06:55:51.915Z,14.40
2024-05-09T06:58:21.725Z,14.30
2024-05-09T07:00:49.019Z,14.40
2024-05-09T07:03:21.620Z,14.40
2024-05-09T07:05:49.758Z,14.50
2024-05-09T07:08:20.111Z,14.40
2024-05-09T07:10:47.514Z,14.40
2024-05-09T07:13:17.845Z,14.40
2024-05-09T07:15:45.083Z,14.60
2024-05-09T07:18:20.027Z,14.80
2024-05-09T07:20:50.953Z,14.90
2024-05-09T07:23:21.149Z,14.80
2024-05-09T07:25:48.618Z,14.70
2024-05-09T07:28:20.003Z,14.80
2024-05-09T07:30:47.554Z,14.90
2024-05-09T07:33:22.392Z,15.00
2024-05-09T07:35:53.646Z,15.00
2024-05-09T07:38:24.078Z,15.20
2024-05-09T07:40:51.366Z,15.40
2024-05-09T07:43:21.230Z,15.40
2024-05-09T07:45:53.346Z,15.60
2024-05-09T07:53:40.479Z,15.50
2024-05-09T07:56:12.537Z,15.60
2024-05-09T07:58:42.604Z,15.70
2024-05-09T08:01:09.924Z,15.80
2024-05-09T08:03:40.746Z,15.70
2024-05-09T08:06:10.700Z,15.80
2024-05-09T08:08:40.501Z,16.00
2024-05-09T08:11:07.813Z,15.90
2024-05-09T08:13:37.631Z,15.70
2024-05-09T08:16:05.642Z,15.90
2024-05-09T08:18:35.939Z,16.00
2024-05-09T08:21:03.261Z,16.30
2024-05-09T08:23:36.243Z,16.20
2024-05-09T08:26:03.527Z,16.30
2024-05-09T08:28:33.425Z,16.40
2024-05-09T08:31:03.129Z,16.60
2024-05-09T08:33:35.403Z,16.80
2024-05-09T08:36:03.011Z,16.80
2024-05-09T08:38:35.620Z,16.80
2024-05-09T08:41:04.136Z,16.70
2024-05-09T08:43:33.944Z,16.80
2024-05-09T08:46:04.261Z,16.90
2024-05-09T08:48:39.302Z,17.10
2024-05-09T08:51:06.958Z,17.20
2024-05-09T08:53:39.393Z,17.10
2024-05-09T08:56:08.922Z,17.20
2024-05-09T08:58:40.062Z,17.30
2024-05-09T09:01:07.962Z,17.60
2024-05-09T09:03:40.185Z,17.70
2024-05-09T09:06:11.601Z,17.70
2024-05-09T09:08:44.166Z,18.20
2024-05-09T09:11:11.421Z,19.00
2024-05-09T09:13:41.305Z,20.00
2024-05-09T09:16:08.858Z,21.10
2024-05-09T09:18:39.031Z,22.00
2024-05-09T09:21:10.588Z,22.00
2024-05-09T09:23:43.256Z,22.60
2024-05-09T09:26:15.917Z,22.90
2024-05-09T09:28:46.160Z,22.90
2024-05-09T09:31:16.694Z,23.30
2024-05-09T09:33:46.735Z,23.50
2024-05-09T09:36:14.411Z,23.70
2024-05-09T09:38:48.810Z,23.60
2024-05-09T09:41:17.874Z,23.30
2024-05-09T09:43:47.969Z,23.50
2024-05-09T09:46:16.173Z,23.30
2024-05-09T09:48:47.148Z,24.10
2024-05-09T09:51:15.745Z,24.50
2024-05-09T09:53:50.115Z,24.10
2024-05-09T09:56:18.562Z,24.60
2024-05-09T09:58:49.326Z,24.10
2024-05-09T10:01:16.670Z,24.50
2024-05-09T10:03:47.702Z,24.90
2024-05-09T10:06:16.217Z,25.20
2024-05-09T10:08:49.687Z,25.70
2024-05-09T10:11:20.280Z,25.60
2024-05-09T10:13:50.335Z,25.50
2024-05-09T10:16:21.375Z,25.80
2024-05-09T10:18:51.567Z,24.00
2024-05-09T10:21:20.186Z,24.80
2024-05-09T10:24:03.348Z,24.80
2024-05-09T10:26:32.228Z,24.90
2024-05-09T10:29:03.308Z,24.90
2024-05-09T10:31:30.536Z,24.70
2024-05-09T10:34:02.999Z,25.10
2024-05-09T10:36:30.572Z,25.30
2024-05-09T10:39:03.039Z,25.80
2024-05-09T10:41:30.178Z,26.50
2024-05-09T10:43:59.991Z,26.50
2024-05-09T10:46:27.266Z,26.50
2024-05-09T10:48:57.214Z,25.10
2024-05-09T10:51:25.041Z,23.50
2024-05-09T10:53:56.686Z,23.50
2024-05-09T10:56:26.775Z,23.70
2024-05-09T10:58:57.325Z,24.10
2024-05-09T11:01:24.677Z,24.80
2024-05-09T11:03:55.210Z,25.20
2024-05-09T11:06:23.337Z,25.70
2024-05-09T11:08:54.059Z,26.50
2024-05-09T11:11:21.373Z,26.20
2024-05-09T11:13:53.763Z,25.50
2024-05-09T11:16:21.791Z,25.50
2024-05-09T11:18:59.536Z,25.80
2024-05-09T11:21:27.075Z,25.70
2024-05-09T11:23:57.223Z,25.30
2024-05-09T11:26:25.434Z,24.70
2024-05-09T11:28:58.056Z,23.70
2024-05-09T11:31:25.621Z,23.40
2024-05-09T11:33:57.272Z,23.80
2024-05-09T11:36:24.620Z,24.80
2024-05-09T11:38:54.496Z,24.80
2024-05-09T11:41:21.757Z,24.90
2024-05-09T11:43:51.535Z,25.50
2024-05-09T11:46:21.619Z,25.80
2024-05-09T11:48:51.685Z,26.20
2024-05-09T11:51:19.163Z,25.60
2024-05-09T11:53:48.963Z,25.80
2024-05-09T11:56:17.397Z,25.30
2024-05-09T11:58:47.206Z,25.00
2024-05-09T12:01:14.514Z,23.60
2024-05-09T12:03:48.658Z,22.70
2024-05-09T12:06:16.026Z,22.40
2024-05-09T12:08:46.066Z,22.70
2024-05-09T12:11:13.887Z,22.70
2024-05-09T12:13:43.771Z,23.10
2024-05-09T12:16:11.081Z,23.80
2024-05-09T12:18:40.981Z,23.70
2024-05-09T12:21:10.848Z,23.50
2024-05-09T12:23:40.624Z,23.40
2024-05-09T12:26:08.002Z,23.80
2024-05-09T12:28:37.841Z,23.90
2024-05-09T12:31:05.311Z,23.60
2024-05-09T12:33:35.293Z,23.20
2024-05-09T12:36:02.641Z,23.00
2024-05-09T12:38:35.159Z,22.40
2024-05-09T12:41:02.391Z,22.50
2024-05-09T12:43:32.287Z,22.00
2024-05-09T12:45:59.541Z,22.10
2024-05-09T12:48:29.460Z,22.20
2024-05-09T12:50:57.643Z,22.10
2024-05-09T12:53:27.559Z,22.10
2024-05-09T12:56:01.839Z,22.60
2024-05-09T12:58:33.769Z,23.30
2024-05-09T13:01:01.059Z,23.30
2024-05-09T13:03:31.204Z,23.60
2024-05-09T13:05:58.877Z,23.20
2024-05-09T13:08:28.778Z,23.00
2024-05-09T13:10:58.893Z,22.90
2024-05-09T13:13:29.334Z,22.80
2024-05-09T13:15:56.504Z,23.10
2024-05-09T13:18:26.500Z,23.50
2024-05-09T13:20:53.746Z,23.50
2024-05-09T13:23:23.544Z,23.70
2024-05-09T13:25:50.791Z,23.60
2024-05-09T13:28:23.363Z,23.60
2024-05-09T13:30:50.700Z,23.80
2024-05-09T13:33:20.809Z,23.70
2024-05-09T13:35:50.565Z,23.90
2024-05-09T13:38:21.844Z,23.60
2024-05-09T13:40:50.410Z,23.50
2024-05-09T13:43:23.991Z,23.50
2024-05-09T13:45:51.971Z,23.30
2024-05-09T13:48:21.913Z,23.40
2024-05-09T13:50:49.172Z,23.10
2024-05-09T13:53:19.392Z,23.00
2024-05-09T13:55:46.726Z,22.90
2024-05-09T13:58:16.735Z,22.90
2024-05-09T14:00:48.965Z,23.20
2024-05-09T14:03:21.070Z,22.80
2024-05-09T14:05:50.224Z,22.70
2024-05-09T14:08:22.333Z,22.10
2024-05-09T14:10:50.466Z,21.60
2024-05-09T14:13:20.627Z,21.30
2024-05-09T14:15:50.880Z,21.10
2024-05-09T14:18:21.188Z,21.20
2024-05-09T14:20:48.461Z,21.40
2024-05-09T14:23:20.616Z,21.30
2024-05-09T14:25:51.826Z,21.50
2024-05-09T14:28:22.745Z,21.30
2024-05-09T14:30:53.267Z,21.40
2024-05-09T14:33:26.680Z,21.70
2024-05-09T14:35:54.423Z,22.10
2024-05-09T14:38:24.321Z,22.30
2024-05-09T14:40:51.632Z,22.40
2024-05-09T14:43:21.771Z,22.50
2024-05-09T14:45:49.012Z,22.30
2024-05-09T14:48:22.326Z,22.40
2024-05-09T14:50:49.586Z,22.30
2024-05-09T14:53:19.403Z,22.10
2024-05-09T14:55:46.718Z,22.20
2024-05-09T14:58:16.837Z,22.30
2024-05-09T15:00:50.129Z,22.30
2024-05-09T15:03:23.864Z,22.40
2024-05-09T15:05:51.715Z,22.30
2024-05-09T15:08:22.078Z,22.20
2024-05-09T15:10:50.435Z,22.30
2024-05-09T15:13:20.992Z,22.00
2024-05-09T15:15:48.790Z,22.00
2024-05-09T15:18:19.487Z,22.00
2024-05-09T15:20:49.605Z,22.00
2024-05-09T15:23:19.830Z,22.00
2024-05-09T15:25:47.160Z,21.80
2024-05-09T15:28:17.168Z,21.70
2024-05-09T15:30:46.539Z,21.70
2024-05-09T15:33:17.315Z,21.80
2024-05-09T15:35:46.673Z,22.00
2024-05-09T15:38:19.885Z,22.20
2024-05-09T15:40:47.284Z,22.30
2024-05-09T15:43:17.415Z,22.60
2024-05-09T15:45:44.952Z,22.60
2024-05-09T15:48:15.015Z,22.40
2024-05-09T15:50:43.055Z,22.20
2024-05-09T15:53:13.893Z,22.30
2024-05-09T15:55:43.887Z,22.30
2024-05-09T15:58:14.231Z,22.30
2024-05-09T16:00:44.792Z,22.20
2024-05-09T16:03:16.282Z,22.20
2024-05-09T16:05:44.825Z,21.90
2024-05-09T16:08:15.487Z,21.70
2024-05-09T16:10:47.443Z,21.70
2024-05-09T16:13:19.619Z,21.70
2024-05-09T16:15:47.242Z,21.70
2024-05-09T16:18:17.267Z,21.70
2024-05-09T16:20:46.443Z,21.60
2024-05-09T16:23:18.297Z,21.50
2024-05-09T16:25:48.710Z,21.40
2024-05-09T16:28:19.319Z,21.30
2024-05-09T16:30:46.975Z,21.30
2024-05-09T16:33:19.455Z,21.30
2024-05-09T16:35:46.978Z,21.20
2024-05-09T16:38:16.738Z,21.20
2024-05-09T16:40:44.151Z,21.20
2024-05-09T16:43:16.927Z,21.30
2024-05-09T16:45:44.735Z,21.30
2024-05-09T16:48:16.839Z,21.20
2024-05-09T16:50:44.121Z,21.20
2024-05-09T16:53:14.133Z,21.20
2024-05-09T16:55:41.487Z,21.20
2024-05-09T16:58:12.360Z,21.10
2024-05-09T17:00:43.901Z,21.10
2024-05-09T17:03:16.636Z,21.10
2024-05-09T17:05:46.419Z,21.10
2024-05-09T17:08:19.777Z,21.00
2024-05-09T17:10:48.664Z,21.00
2024-05-09T17:13:19.790Z,20.90
2024-05-09T17:15:52.654Z,20.90
2024-05-09T17:18:23.034Z,20.90
2024-05-09T17:20:52.385Z,20.70
2024-05-09T17:23:22.198Z,20.70
2024-05-09T17:25:49.421Z,20.50
2024-05-09T17:28:19.601Z,20.50
2024-05-09T17:30:49.659Z,20.50
2024-05-09T17:33:19.747Z,20.40
2024-05-09T17:35:50.365Z,20.40
2024-05-09T17:38:22.858Z,20.30
2024-05-09T17:40:50.541Z,20.20
2024-05-09T17:43:20.633Z,20.20
2024-05-09T17:45:50.553Z,20.10
2024-05-09T17:48:20.605Z,20.10
2024-05-09T17:50:48.003Z,20.00
2024-05-09T17:53:17.742Z,20.00
2024-05-09T17:55:45.009Z,19.90
2024-05-09T17:58:15.796Z,19.80
2024-05-09T18:00:43.172Z,19.80
2024-05-09T18:03:15.617Z,19.80
2024-05-09T18:05:44.268Z,19.70
2024-05-09T18:08:14.830Z,19.80
2024-05-09T18:10:42.507Z,19.70
2024-05-09T18:13:13.154Z,19.60
2024-05-09T18:15:41.178Z,19.60
2024-05-09T18:18:11.717Z,19.50
2024-05-09T18:20:45.263Z,19.40
2024-05-09T18:23:17.928Z,19.40
2024-05-09T18:25:46.740Z,19.30
2024-05-09T18:28:17.680Z,19.10
2024-05-09T18:30:45.230Z,19.00
2024-05-09T18:33:15.695Z,18.80
2024-05-09T18:35:45.874Z,18.80
2024-05-09T18:38:15.940Z,18.70
2024-05-09T18:40:45.929Z,18.60
2024-05-09T18:43:19.019Z,18.50
2024-05-09T18:45:49.293Z,18.50
2024-05-09T18:48:19.332Z,18.40
2024-05-09T18:50:49.399Z,18.20
2024-05-09T18:53:19.295Z,18.20
2024-05-09T18:55:46.476Z,18.10
2024-05-09T18:58:17.189Z,18.00
2024-05-09T19:00:47.177Z,17.90
2024-05-09T19:03:19.707Z,17.80
2024-05-09T19:05:50.046Z,17.70
2024-05-09T19:08:19.922Z,17.60
2024-05-09T19:10:47.215Z,17.60
2024-05-09T19:13:17.198Z,17.50
2024-05-09T19:15:44.814Z,17.40
2024-05-09T19:18:15.595Z,17.40
2024-05-09T19:20:43.481Z,17.30
2024-05-09T19:23:16.034Z,17.20
2024-05-09T19:25:43.222Z,17.20
2024-05-09T19:28:13.094Z,17.10
2024-05-09T19:30:42.372Z,17.00
2024-05-09T19:33:14.611Z,17.00
2024-05-09T19:35:42.723Z,16.90
2024-05-09T19:38:15.544Z,16.90
2024-05-09T19:40:42.930Z,16.80
2024-05-09T19:43:13.385Z,16.70
2024-05-09T19:45:40.705Z,16.70
2024-05-09T19:48:11.228Z,16.70
2024-05-09T19:50:43.132Z,16.60
2024-05-09T19:53:17.524Z,16.60
2024-05-09T19:55:44.729Z,16.50
2024-05-09T19:58:14.683Z,16.50
2024-05-09T20:00:43.651Z,16.50
2024-05-09T20:03:15.738Z,16.50
2024-05-09T20:05:45.917Z,16.40
2024-05-09T20:08:19.743Z,16.40
2024-05-09T20:10:47.094Z,16.40
2024-05-09T20:13:17.164Z,16.40
2024-05-09T20:15:44.542Z,16.30
2024-05-09T20:18:14.692Z,16.20
2024-05-09T20:20:44.067Z,16.20
2024-05-09T20:23:18.047Z,16.20
2024-05-09T20:25:45.325Z,16.20
2024-05-09T20:28:15.207Z,16.10
2024-05-09T20:30:42.407Z,16.10
2024-05-09T20:33:14.108Z,16.00
2024-05-09T20:35:41.455Z,16.00
2024-05-09T20:38:11.196Z,16.00
2024-05-09T20:40:41.035Z,15.90
2024-05-09T20:43:11.808Z,15.80
2024-05-09T20:45:40.102Z,15.80
2024-05-09T20:48:11.696Z,15.70
2024-05-09T20:50:41.617Z,15.70
2024-05-09T20:53:14.599Z,15.60
2024-05-09T20:55:45.544Z,15.50
2024-05-09T20:58:15.708Z,15.40
2024-05-09T21:00:45.596Z,15.30
2024-05-09T21:03:17.770Z,15.30
2024-05-09T21:05:45.916Z,15.20
2024-05-09T21:08:16.166Z,15.20
2024-05-09T21:10:46.082Z,15.30
2024-05-09T21:13:16.056Z,15.30
2024-05-09T21:15:43.434Z,15.30
2024-05-09T21:18:13.691Z,15.30
2024-05-09T21:20:40.956Z,15.20
2024-05-09T21:23:11.062Z,15.20
2024-05-09T21:25:38.346Z,15.20
2024-05-09T21:28:10.984Z,15.10
2024-05-09T21:30:42.052Z,15.10
2024-05-09T21:33:14.781Z,15.00
2024-05-09T21:35:42.993Z,15.00
2024-05-09T21:38:13.677Z,15.00
2024-05-09T21:40:41.208Z,15.00
2024-05-09T21:43:14.288Z,14.90
2024-05-09T21:45:41.889Z,14.90
2024-05-09T21:48:11.850Z,14.90
2024-05-09T21:50:41.558Z,14.80
2024-05-09T21:53:13.205Z,14.70
2024-05-09T21:55:41.158Z,14.60
2024-05-09T21:58:14.940Z,14.60
2024-05-09T22:00:45.670Z,14.60
2024-05-09T22:03:16.313Z,14.60
2024-05-09T22:05:45.019Z,14.60
2024-05-09T22:08:15.297Z,14.60
2024-05-09T22:10:42.726Z,14.60
2024-05-09T22:13:16.833Z,14.40
2024-05-09T22:15:44.294Z,14.30
2024-05-09T22:18:14.273Z,14.20
2024-05-09T22:20:45.225Z,14.30
2024-05-09T22:23:16.378Z,14.20
2024-05-09T22:25:43.684Z,14.10
2024-05-09T22:28:17.403Z,14.10
2024-05-09T22:30:46.236Z,13.90
2024-05-09T22:33:17.578Z,13.90
2024-05-09T22:35:45.229Z,13.80
2024-05-09T22:38:15.187Z,13.80
2024-05-09T22:40:47.903Z,13.70
2024-05-09T22:43:24.732Z,13.60
2024-05-09T22:45:55.709Z,13.50
2024-05-09T22:48:24.279Z,13.50
2024-05-09T22:50:54.932Z,13.40
2024-05-09T22:53:22.879Z,13.40
2024-05-09T22:55:52.703Z,13.40
2024-05-09T22:58:23.316Z,13.30
2024-05-09T23:00:53.594Z,13.20
2024-05-09T23:03:22.637Z,13.20
2024-05-09T23:05:52.839Z,13.20
2024-05-09T23:08:20.128Z,13.20
2024-05-09T23:10:49.991Z,13.20
2024-05-09T23:13:17.372Z,13.20
2024-05-09T23:15:49.793Z,13.20
2024-05-09T23:18:17.087Z,13.20
2024-05-09T23:20:46.933Z,13.30
2024-05-09T23:23:14.171Z,13.30
2024-05-09T23:25:46.001Z,13.30
2024-05-09T23:28:13.410Z,13.30
2024-05-09T23:30:43.418Z,13.30
2024-05-09T23:33:14.249Z,13.40
2024-05-09T23:35:45.245Z,13.30
2024-05-09T23:38:12.585Z,13.40
2024-05-09T23:40:43.302Z,13.40
2024-05-09T23:43:12.293Z,13.40
2024-05-09T23:45:43.132Z,13.40
2024-05-09T23:48:13.278Z,13.40
2024-05-09T23:50:43.410Z,13.40
2024-05-09T23:53:11.225Z,13.40
2024-05-09T23:55:41.725Z,13.30
2024-05-09T23:58:09.492Z,13.30
